Time;durP1;ratioP1;P1;durP2;ratioP2;P2;SDS_P1;SDS_P2;PMS_P1;PMS_P2;Temp;Humidity;BMP_temperature;BMP_pressure;BME280_temperature;BME280_humidity;BME280_pressure;Samples;Min_cycle;Max_cycle;Signal;HPM_P1;HPM_P2
2022/03/29 00:01:14;;;;;;;27.23;17.20;;;6.50;99.90;;;;;;5095227;28;20126;-74
2022/03/29 00:03:40;;;;;;;24.20;17.45;;;6.40;99.90;;;;;;5095409;28;20047;-74
2022/03/29 00:06:06;;;;;;;27.98;19.25;;;6.40;99.90;;;;;;5112271;28;20035;-74
2022/03/29 00:08:32;;;;;;;33.05;21.52;;;6.40;99.90;;;;;;5113671;28;20040;-74
2022/03/29 00:10:58;;;;;;;39.35;20.05;;;6.40;99.90;;;;;;5112276;28;20400;-74
2022/03/29 00:13:24;;;;;;;31.23;20.02;;;6.40;99.90;;;;;;5094608;28;20043;-74
2022/03/29 00:15:49;;;;;;;29.30;19.77;;;6.40;99.90;;;;;;5080224;28;20043;-74
2022/03/29 00:18:15;;;;;;;31.48;20.85;;;6.40;99.90;;;;;;5116541;28;20070;-74
2022/03/29 00:20:41;;;;;;;28.90;20.23;;;6.40;99.90;;;;;;5095292;28;20044;-74
2022/03/29 00:23:07;;;;;;;31.75;21.02;;;6.40;99.90;;;;;;5106580;28;20055;-74
2022/03/29 00:25:33;;;;;;;28.98;20.35;;;6.40;99.90;;;;;;5116152;28;20486;-74
2022/03/29 00:27:59;;;;;;;30.77;19.95;;;6.30;99.90;;;;;;5117211;28;20075;-74
2022/03/29 00:30:25;;;;;;;31.45;19.33;;;6.40;99.90;;;;;;5117036;28;20516;-74
2022/03/29 00:32:51;;;;;;;29.65;19.23;;;6.40;99.90;;;;;;5097848;28;20088;-74
2022/03/29 00:35:17;;;;;;;30.98;19.05;;;6.30;99.90;;;;;;5117015;28;20101;-74
2022/03/29 00:37:43;;;;;;;28.42;19.15;;;6.40;99.90;;;;;;5117043;28;20040;-74
2022/03/29 00:40:12;;;;;;;32.40;19.20;;;6.30;99.90;;;;;;5098231;28;20475;-74
2022/03/29 00:42:39;;;;;;;32.15;19.10;;;6.30;99.90;;;;;;5097937;28;20055;-74
2022/03/29 00:45:05;;;;;;;26.77;18.02;;;6.30;99.90;;;;;;5116788;28;20051;-74
2022/03/29 00:47:31;;;;;;;28.25;18.80;;;6.40;99.90;;;;;;5115649;28;20490;-74
2022/03/29 00:49:57;;;;;;;26.88;18.38;;;6.30;99.90;;;;;;5098096;28;20118;-75
2022/03/29 00:52:24;;;;;;;24.33;18.90;;;6.30;99.90;;;;;;5098547;28;20127;-74
2022/03/29 00:54:50;;;;;;;28.95;18.67;;;6.40;99.90;;;;;;5097008;28;20036;-74
2022/03/29 00:57:16;;;;;;;27.25;18.65;;;6.40;99.90;;;;;;5116800;28;20119;-74
2022/03/29 00:59:43;;;;;;;28.65;18.42;;;6.40;99.90;;;;;;5116500;28;20032;-74
2022/03/29 01:02:09;;;;;;;26.90;16.80;;;6.40;99.90;;;;;;5097335;28;20406;-74
2022/03/29 01:04:35;;;;;;;24.90;16.73;;;6.40;99.90;;;;;;5116319;28;20041;-74
2022/03/29 01:07:01;;;;;;;30.08;19.20;;;6.50;99.90;;;;;;5098440;28;20396;-74
2022/03/29 01:09:28;;;;;;;30.70;18.17;;;6.50;99.90;;;;;;5097265;28;20034;-74
2022/03/29 01:11:55;;;;;;;23.83;17.52;;;6.50;99.90;;;;;;5116519;28;20057;-74
2022/03/29 01:14:21;;;;;;;32.65;18.30;;;6.50;99.90;;;;;;5115200;28;20111;-74
2022/03/29 01:19:33;;;;;;;29.80;18.17;;;6.50;99.90;;;;;;5097486;28;20122;-74
2022/03/29 01:22:05;;;;;;;31.90;18.77;;;6.50;99.90;;;;;;5097067;28;20050;-74
2022/03/29 01:24:32;;;;;;;26.70;18.05;;;6.60;99.90;;;;;;5116051;28;20383;-74
2022/03/29 01:27:04;;;;;;;32.15;19.35;;;6.60;99.90;;;;;;5096722;28;20189;-74
2022/03/29 01:29:32;;;;;;;26.45;17.98;;;6.60;99.90;;;;;;5096539;28;20039;-74
2022/03/29 01:32:01;;;;;;;23.75;17.60;;;6.50;99.90;;;;;;5097612;28;20535;-74
2022/03/29 01:34:28;;;;;;;30.63;18.15;;;6.50;99.90;;;;;;5097774;28;20439;-74
2022/03/29 01:36:54;;;;;;;27.98;18.90;;;6.50;99.90;;;;;;5114971;28;20506;-74
2022/03/29 01:39:20;;;;;;;34.42;19.95;;;6.50;99.90;;;;;;5097260;28;20048;-74
2022/03/29 01:41:48;;;;;;;30.63;19.33;;;6.50;99.90;;;;;;5115854;28;20045;-74
2022/03/29 01:44:14;;;;;;;32.38;20.85;;;6.50;99.90;;;;;;5114427;28;20039;-74
2022/03/29 01:46:40;;;;;;;28.13;18.95;;;6.50;99.90;;;;;;5097391;28;20043;-74
2022/03/29 01:49:06;;;;;;;34.03;20.25;;;6.60;99.90;;;;;;5093638;28;20068;-74
2022/03/29 01:51:33;;;;;;;33.08;20.02;;;6.60;99.90;;;;;;5110603;28;20120;-74
2022/03/29 01:54:02;;;;;;;26.08;19.23;;;6.50;99.90;;;;;;5115687;28;20134;-74
2022/03/29 01:56:32;;;;;;;32.95;20.23;;;6.60;99.90;;;;;;5114250;28;20483;-74
2022/03/29 01:59:03;;;;;;;27.33;18.88;;;6.50;99.90;;;;;;5115548;28;20043;-74
2022/03/29 02:01:28;;;;;;;30.27;18.60;;;6.50;99.90;;;;;;5114979;28;20570;-74
2022/03/29 02:03:54;;;;;;;32.55;19.55;;;6.50;99.90;;;;;;5096443;28;20130;-74
2022/03/29 02:06:20;;;;;;;29.23;19.73;;;6.50;99.90;;;;;;5096502;28;20473;-74
2022/03/29 02:08:46;;;;;;;35.70;22.45;;;6.50;99.90;;;;;;5096981;28;20048;-74
2022/03/29 02:11:13;;;;;;;31.20;20.65;;;6.50;99.90;;;;;;5078877;28;20100;-74
2022/03/29 02:13:39;;;;;;;34.33;20.73;;;6.50;99.90;;;;;;5097009;28;20079;-74
2022/03/29 02:16:05;;;;;;;32.03;20.55;;;6.50;99.90;;;;;;5114782;28;20051;-74
2022/03/29 02:18:31;;;;;;;30.38;19.15;;;6.50;99.90;;;;;;5096315;28;20044;-74
2022/03/29 02:20:57;;;;;;;30.58;18.75;;;6.50;99.90;;;;;;5096669;28;20364;-74
2022/03/29 02:23:22;;;;;;;31.42;19.60;;;6.50;99.90;;;;;;5096672;28;20482;-74
2022/03/29 02:25:49;;;;;;;30.08;19.27;;;6.50;99.90;;;;;;5078665;28;20043;-74
2022/03/29 02:28:15;;;;;;;30.73;19.05;;;6.50;99.90;;;;;;5115051;28;20047;-74
2022/03/29 02:30:41;;;;;;;26.73;16.85;;;6.50;99.90;;;;;;5114551;28;20470;-74
2022/03/29 02:33:07;;;;;;;33.28;19.13;;;6.50;99.90;;;;;;5113901;28;20474;-74
2022/03/29 02:35:33;;;;;;;27.20;19.40;;;6.50;99.90;;;;;;5096633;28;20051;-74
2022/03/29 02:37:59;;;;;;;32.55;18.55;;;6.50;99.90;;;;;;5114216;28;20096;-74
2022/03/29 02:40:26;;;;;;;30.35;18.95;;;6.50;99.90;;;;;;5113856;28;20047;-74
2022/03/29 02:42:54;;;;;;;29.10;17.17;;;6.50;99.90;;;;;;5096356;28;20052;-74
2022/03/29 02:45:26;;;;;;;28.95;18.67;;;6.50;99.90;;;;;;5114698;28;20482;-74
2022/03/29 02:47:54;;;;;;;31.67;18.67;;;6.50;99.90;;;;;;5113616;28;20055;-74
2022/03/29 02:50:21;;;;;;;29.17;17.75;;;6.50;99.90;;;;;;5092639;28;20139;-75
2022/03/29 02:52:49;;;;;;;28.42;16.90;;;6.50;99.90;;;;;;5093114;28;20051;-74
2022/03/29 02:55:18;;;;;;;32.50;18.83;;;6.50;99.90;;;;;;5092926;28;20052;-74
2022/03/29 02:57:44;;;;;;;33.83;18.52;;;6.50;99.90;;;;;;5092500;28;20039;-74
2022/03/29 03:00:15;;;;;;;30.33;17.67;;;6.50;99.90;;;;;;5091769;28;20044;-74
2022/03/29 03:02:42;;;;;;;27.50;18.15;;;6.50;99.90;;;;;;5092533;28;20048;-74
2022/03/29 03:05:08;;;;;;;33.00;19.20;;;6.50;99.90;;;;;;5093887;28;20139;-74
2022/03/29 03:07:34;;;;;;;32.40;18.60;;;6.50;99.90;;;;;;5074268;28;20040;-74
2022/03/29 03:10:00;;;;;;;35.75;18.15;;;6.50;99.90;;;;;;5089648;28;20039;-74
2022/03/29 03:12:26;;;;;;;27.10;17.60;;;6.50;99.90;;;;;;5083097;28;20040;-74
2022/03/29 03:14:52;;;;;;;30.75;17.13;;;6.50;99.90;;;;;;5092848;28;20044;-74
2022/03/29 03:17:18;;;;;;;38.63;17.52;;;6.50;99.90;;;;;;5093893;28;20105;-74
2022/03/29 03:19:44;;;;;;;27.83;16.67;;;6.50;99.90;;;;;;5092530;28;20417;-74
2022/03/29 03:22:11;;;;;;;26.75;17.35;;;6.50;99.90;;;;;;5091413;28;20142;-74
2022/03/29 03:24:36;;;;;;;29.38;18.30;;;6.40;99.90;;;;;;5092239;28;20056;-74
2022/03/29 03:27:03;;;;;;;30.77;18.38;;;6.40;99.90;;;;;;5092713;28;20047;-74
2022/03/29 03:29:29;;;;;;;29.40;17.75;;;6.40;99.90;;;;;;5092752;28;20400;-74
2022/03/29 03:31:54;;;;;;;34.90;18.25;;;6.40;99.90;;;;;;5093743;28;20039;-74
2022/03/29 03:34:20;;;;;;;30.25;17.10;;;6.40;99.90;;;;;;5092301;28;20471;-74
2022/03/29 03:36:46;;;;;;;30.10;17.83;;;6.40;99.90;;;;;;5091208;28;20040;-74
2022/03/29 03:39:12;;;;;;;28.95;17.00;;;6.40;99.90;;;;;;5092353;28;20086;-74
2022/03/29 03:41:39;;;;;;;34.67;19.60;;;6.40;99.90;;;;;;5092179;28;20040;-74
2022/03/29 03:44:05;;;;;;;32.90;18.45;;;6.40;99.90;;;;;;5092565;28;20044;-74
2022/03/29 03:46:31;;;;;;;27.80;18.58;;;6.40;99.90;;;;;;5092319;28;20051;-74
2022/03/29 03:48:57;;;;;;;32.80;20.02;;;6.40;99.90;;;;;;5092655;28;20040;-74
2022/03/29 03:51:23;;;;;;;33.78;20.63;;;6.40;99.90;;;;;;5109027;28;20402;-74
2022/03/29 03:53:50;;;;;;;32.85;19.20;;;6.40;99.90;;;;;;5099253;28;20079;-74
2022/03/29 03:56:16;;;;;;;34.58;19.58;;;6.40;99.90;;;;;;5098942;28;20488;-74
2022/03/29 03:58:41;;;;;;;37.00;18.88;;;6.40;99.90;;;;;;5117448;28;20039;-74
2022/03/29 04:01:11;;;;;;;37.15;20.50;;;6.30;99.90;;;;;;5117881;28;20040;-74
2022/03/29 04:03:38;;;;;;;32.53;19.38;;;6.40;99.90;;;;;;5082064;28;20456;-74
2022/03/29 04:06:04;;;;;;;32.72;19.83;;;6.30;99.90;;;;;;5117831;28;20036;-74
2022/03/29 04:08:30;;;;;;;31.63;19.58;;;6.30;99.90;;;;;;5099118;28;20391;-74
2022/03/29 04:10:56;;;;;;;30.88;19.10;;;6.40;99.90;;;;;;5117036;28;20040;-74
2022/03/29 04:13:22;;;;;;;30.55;20.17;;;6.30;99.90;;;;;;5099215;28;20051;-74
2022/03/29 04:15:48;;;;;;;37.30;20.35;;;6.30;99.90;;;;;;5099535;28;20055;-74
2022/03/29 04:18:15;;;;;;;32.17;18.73;;;6.30;99.90;;;;;;5116434;28;20394;-74
2022/03/29 04:20:41;;;;;;;36.35;19.50;;;6.30;99.90;;;;;;5117500;28;20048;-74
2022/03/29 04:23:07;;;;;;;38.72;20.73;;;6.40;99.90;;;;;;5098808;28;20421;-74
2022/03/29 04:25:34;;;;;;;32.67;18.83;;;6.40;99.90;;;;;;5098141;28;20471;-74
2022/03/29 04:28:00;;;;;;;34.08;20.25;;;6.40;99.90;;;;;;5116959;28;20044;-74
2022/03/29 04:30:26;;;;;;;37.50;20.45;;;6.30;99.90;;;;;;5117381;28;20042;-74
2022/03/29 04:32:53;;;;;;;32.75;19.85;;;6.40;99.90;;;;;;5097880;28;20122;-74
2022/03/29 04:35:19;;;;;;;34.97;19.75;;;6.30;99.90;;;;;;5117301;28;20043;-74
2022/03/29 04:37:45;;;;;;;33.75;20.80;;;6.30;99.90;;;;;;5116815;28;20466;-74
2022/03/29 04:40:12;;;;;;;38.65;20.30;;;6.30;99.90;;;;;;5097727;28;20494;-74
2022/03/29 04:42:56;;;;;;;37.33;20.10;;;6.30;99.90;;;;;;5098568;28;20128;-74
2022/03/29 04:45:21;;;;;;;36.05;20.50;;;6.30;99.90;;;;;;5115927;28;20052;-74
2022/03/29 04:47:47;;;;;;;35.72;20.52;;;6.30;99.90;;;;;;5116674;28;20050;-74
2022/03/29 04:50:15;;;;;;;40.75;20.55;;;6.30;99.90;;;;;;5097947;28;20415;-75
2022/03/29 04:52:44;;;;;;;41.85;21.63;;;6.30;99.90;;;;;;5098015;28;20052;-74
2022/03/29 04:55:14;;;;;;;37.53;20.33;;;6.30;99.90;;;;;;5098215;28;20114;-75
2022/03/29 04:57:42;;;;;;;35.10;20.73;;;6.30;99.90;;;;;;5098156;28;20046;-74
2022/03/29 05:00:12;;;;;;;30.67;19.52;;;6.30;99.90;;;;;;5115461;28;20040;-74
2022/03/29 05:02:43;;;;;;;36.45;20.67;;;6.30;99.90;;;;;;5081198;28;20047;-74
2022/03/29 05:05:10;;;;;;;39.50;20.58;;;6.30;99.90;;;;;;5097638;28;20051;-74
2022/03/29 05:07:37;;;;;;;36.45;20.13;;;6.30;99.90;;;;;;5097087;28;20070;-74
2022/03/29 05:10:04;;;;;;;42.55;21.88;;;6.30;99.90;;;;;;5094607;28;20498;-74
2022/03/29 05:12:37;;;;;;;43.10;20.60;;;6.40;99.90;;;;;;5095010;28;20039;-74
2022/03/29 05:15:04;;;;;;;30.42;19.55;;;6.30;99.90;;;;;;5107875;28;20551;-74
2022/03/29 05:17:31;;;;;;;38.53;22.05;;;6.40;99.90;;;;;;5081603;28;20079;-74
2022/03/29 05:19:57;;;;;;;33.72;20.55;;;6.40;99.90;;;;;;5097932;28;20122;-74
2022/03/29 05:22:22;;;;;;;33.67;20.17;;;6.40;99.90;;;;;;5097055;28;20130;-74
2022/03/29 05:24:48;;;;;;;34.78;20.73;;;6.40;99.90;;;;;;5116060;28;20167;-74
2022/03/29 05:27:14;;;;;;;28.73;19.20;;;6.40;99.90;;;;;;5084875;28;20109;-74
2022/03/29 05:29:39;;;;;;;33.60;20.25;;;6.40;99.90;;;;;;5076926;28;20036;-74
2022/03/29 05:32:06;;;;;;;37.25;20.17;;;6.50;99.90;;;;;;5060892;28;20044;-74
2022/03/29 05:34:32;;;;;;;32.28;19.23;;;6.40;99.90;;;;;;5094924;28;20119;-74
2022/03/29 05:36:57;;;;;;;34.80;19.83;;;6.40;99.90;;;;;;5077509;28;20123;-74
2022/03/29 05:39:23;;;;;;;35.38;20.63;;;6.40;99.90;;;;;;5100513;28;20471;-74
2022/03/29 05:41:49;;;;;;;40.72;21.25;;;6.40;99.90;;;;;;5096328;28;20130;-74
2022/03/29 05:44:15;;;;;;;35.33;20.95;;;6.40;99.90;;;;;;5115897;28;20071;-74
2022/03/29 05:49:26;;;;;;;36.08;20.70;;;6.40;99.90;;;;;;5114862;28;20047;-74
2022/03/29 05:51:52;;;;;;;33.50;20.08;;;6.40;99.90;;;;;;5093587;28;20060;-74
2022/03/29 05:54:18;;;;;;;34.25;20.52;;;6.40;99.90;;;;;;5077359;28;20169;-74
2022/03/29 05:56:44;;;;;;;37.42;20.90;;;6.40;99.90;;;;;;5106948;28;20140;-74
2022/03/29 05:59:10;;;;;;;33.33;20.13;;;6.50;99.90;;;;;;5115313;28;20058;-74
2022/03/29 06:01:38;;;;;;;34.53;21.38;;;6.50;99.90;;;;;;5093663;28;20052;-74
2022/03/29 06:04:06;;;;;;;36.08;22.65;;;6.50;99.90;;;;;;5075994;28;20047;-74
2022/03/29 06:06:38;;;;;;;39.10;22.00;;;6.50;99.90;;;;;;5104659;28;20044;-75
2022/03/29 06:09:04;;;;;;;42.33;22.48;;;6.50;99.90;;;;;;5097109;28;20126;-75
2022/03/29 06:11:30;;;;;;;37.08;21.60;;;6.50;99.90;;;;;;5113980;28;20089;-74
2022/03/29 06:13:56;;;;;;;36.78;21.55;;;6.50;99.90;;;;;;5075954;28;20048;-74
2022/03/29 06:16:22;;;;;;;40.50;22.23;;;6.50;99.90;;;;;;5103971;28;20040;-74
2022/03/29 06:18:48;;;;;;;40.35;22.70;;;6.60;99.90;;;;;;5093141;28;20432;-74
2022/03/29 06:21:16;;;;;;;39.53;21.45;;;6.60;99.90;;;;;;5080492;28;20043;-74
2022/03/29 06:23:42;;;;;;;35.15;21.02;;;6.60;99.90;;;;;;5095294;28;20521;-74
2022/03/29 06:26:08;;;;;;;33.53;21.30;;;6.60;99.90;;;;;;5096420;28;20093;-74
2022/03/29 06:28:34;;;;;;;38.20;21.33;;;6.60;99.90;;;;;;5114464;28;20043;-74
2022/03/29 06:31:00;;;;;;;36.45;20.83;;;6.60;99.90;;;;;;5114013;28;20450;-74
2022/03/29 06:33:26;;;;;;;35.85;21.20;;;6.60;99.90;;;;;;5079731;28;20050;-74
2022/03/29 06:35:54;;;;;;;36.20;22.33;;;6.60;99.90;;;;;;5114078;28;20110;-74
2022/03/29 06:38:22;;;;;;;43.78;23.33;;;6.60;99.90;;;;;;5113697;28;20040;-74
2022/03/29 06:40:50;;;;;;;40.83;22.35;;;6.70;99.90;;;;;;5114179;28;20071;-75
2022/03/29 06:43:16;;;;;;;38.90;21.88;;;6.80;99.90;;;;;;5095890;28;20043;-75
2022/03/29 06:45:42;;;;;;;35.63;22.25;;;6.80;99.90;;;;;;5095449;28;20051;-76
2022/03/29 06:48:12;;;;;;;36.35;21.27;;;6.80;99.90;;;;;;5093907;28;20402;-74
2022/03/29 06:50:38;;;;;;;35.88;23.00;;;6.80;99.90;;;;;;5092221;28;20055;-74
2022/03/29 06:53:06;;;;;;;35.83;23.17;;;6.80;99.90;;;;;;5092930;28;20403;-74
2022/03/29 06:55:32;;;;;;;33.10;22.65;;;6.80;99.90;;;;;;5092614;28;20174;-74
2022/03/29 06:57:58;;;;;;;38.22;22.63;;;6.90;99.90;;;;;;5075509;28;20044;-74
2022/03/29 07:00:25;;;;;;;38.15;21.73;;;6.90;99.90;;;;;;5091999;28;20093;-74
2022/03/29 07:02:51;;;;;;;38.55;23.42;;;7.00;99.90;;;;;;5093399;28;20047;-74
2022/03/29 07:05:19;;;;;;;32.88;21.63;;;7.00;99.90;;;;;;5093970;28;20435;-75
2022/03/29 07:07:45;;;;;;;42.63;23.58;;;7.00;99.90;;;;;;5091330;28;20089;-74
2022/03/29 07:13:00;;;;;;;34.28;20.75;;;7.10;99.90;;;;;;5091102;28;20139;-74
2022/03/29 07:15:26;;;;;;;34.55;22.02;;;7.10;99.90;;;;;;5092408;28;20484;-74
2022/03/29 07:17:53;;;;;;;35.58;22.27;;;7.10;99.90;;;;;;5075490;28;20207;-74
2022/03/29 07:20:19;;;;;;;38.28;22.17;;;7.10;99.90;;;;;;5091407;28;20544;-74
2022/03/29 07:22:47;;;;;;;48.70;24.65;;;7.10;99.90;;;;;;5091536;28;20488;-74
2022/03/29 07:25:14;;;;;;;39.22;21.70;;;7.10;99.90;;;;;;5091479;28;20079;-74
2022/03/29 07:27:40;;;;;;;43.38;24.10;;;7.10;99.90;;;;;;5091190;28;20052;-74
2022/03/29 07:30:07;;;;;;;39.88;22.00;;;7.10;99.90;;;;;;5092184;28;20040;-74
2022/03/29 07:32:41;;;;;;;37.58;21.70;;;7.10;99.90;;;;;;5092132;28;20093;-74
2022/03/29 07:35:07;;;;;;;42.05;21.65;;;7.10;99.90;;;;;;5071347;28;20044;-74
2022/03/29 07:37:33;;;;;;;38.80;21.77;;;7.10;99.90;;;;;;5073315;28;20385;-74
2022/03/29 07:39:59;;;;;;;39.63;22.30;;;7.10;99.90;;;;;;5091559;28;20114;-74
2022/03/29 07:42:25;;;;;;;41.00;23.55;;;7.10;99.90;;;;;;5091358;28;20487;-74
2022/03/29 07:44:51;;;;;;;39.45;20.73;;;7.10;99.90;;;;;;5091914;28;20537;-74
2022/03/29 07:47:18;;;;;;;40.55;22.15;;;7.20;99.90;;;;;;5093178;28;20491;-74
2022/03/29 07:49:44;;;;;;;37.58;22.40;;;7.20;99.90;;;;;;5092341;28;20075;-74
2022/03/29 07:52:10;;;;;;;41.70;21.65;;;7.20;99.90;;;;;;5112331;28;20411;-74
2022/03/29 07:54:36;;;;;;;36.65;21.27;;;7.20;99.90;;;;;;5113508;28;20047;-74
2022/03/29 07:57:01;;;;;;;36.53;22.08;;;7.30;99.90;;;;;;5094443;28;20059;-74
2022/03/29 07:59:27;;;;;;;34.92;22.45;;;7.30;99.90;;;;;;5095320;28;20039;-74
2022/03/29 08:01:54;;;;;;;40.35;21.63;;;7.30;99.90;;;;;;5109969;28;20040;-74
2022/03/29 08:04:21;;;;;;;33.33;21.02;;;7.30;99.90;;;;;;5063341;28;20051;-74
2022/03/29 08:06:46;;;;;;;36.97;20.42;;;7.30;99.90;;;;;;5092952;28;20035;-74
2022/03/29 08:09:14;;;;;;;38.35;20.98;;;7.30;99.90;;;;;;5100916;28;20123;-74
2022/03/29 08:11:40;;;;;;;43.33;22.20;;;7.30;99.90;;;;;;5112353;28;20036;-74
2022/03/29 08:14:06;;;;;;;37.88;21.40;;;7.40;99.90;;;;;;5113354;28;20118;-74
2022/03/29 08:16:33;;;;;;;37.28;20.75;;;7.30;99.90;;;;;;5107722;28;20036;-74
2022/03/29 08:19:00;;;;;;;36.97;22.08;;;7.30;99.90;;;;;;5092387;28;20056;-74
2022/03/29 08:24:10;;;;;;;29.45;17.05;;;7.50;99.90;;;;;;5094424;28;20048;-74
2022/03/29 08:26:36;;;;;;;36.00;21.20;;;7.50;99.90;;;;;;5112919;28;20036;-74
2022/03/29 08:29:02;;;;;;;37.25;19.95;;;7.50;99.90;;;;;;5095309;28;20047;-74
2022/03/29 08:31:28;;;;;;;42.47;20.88;;;7.60;99.90;;;;;;5094212;28;20051;-74
2022/03/29 08:33:54;;;;;;;35.75;21.90;;;7.50;99.90;;;;;;5113293;28;20047;-74
2022/03/29 08:36:20;;;;;;;39.50;20.60;;;7.60;99.90;;;;;;5114562;28;20479;-74
2022/03/29 08:38:45;;;;;;;45.40;22.55;;;7.60;99.90;;;;;;5116142;28;20095;-74
2022/03/29 08:41:11;;;;;;;43.05;20.83;;;7.60;99.90;;;;;;5098869;28;20501;-74
2022/03/29 08:43:37;;;;;;;55.97;22.02;;;7.60;99.90;;;;;;5098401;28;20093;-74
2022/03/29 08:46:03;;;;;;;40.05;20.75;;;7.70;99.90;;;;;;5097770;28;20404;-74
2022/03/29 08:48:30;;;;;;;34.53;21.10;;;7.70;99.90;;;;;;5117063;28;20042;-74
2022/03/29 08:50:59;;;;;;;38.58;20.67;;;7.80;99.90;;;;;;5116616;28;20149;-74
2022/03/29 08:53:28;;;;;;;44.20;21.48;;;7.90;99.90;;;;;;5098237;28;20127;-74
2022/03/29 08:55:55;;;;;;;43.42;20.75;;;7.90;99.90;;;;;;5098748;28;20055;-74
2022/03/29 08:58:22;;;;;;;41.50;21.45;;;8.00;99.90;;;;;;5116521;28;20044;-74
2022/03/29 09:00:50;;;;;;;41.08;20.55;;;8.20;99.90;;;;;;5116166;28;20501;-73
2022/03/29 09:03:17;;;;;;;37.88;19.33;;;8.30;99.90;;;;;;5098162;28;20048;-73
2022/03/29 09:05:44;;;;;;;35.15;19.17;;;8.40;99.90;;;;;;5097911;28;20047;-73
2022/03/29 09:08:11;;;;;;;32.45;18.83;;;8.40;99.90;;;;;;5098294;28;20058;-74
2022/03/29 09:10:48;;;;;;;38.30;19.60;;;8.50;99.90;;;;;;5098269;28;20079;-73
2022/03/29 09:13:30;;;;;;;44.05;20.02;;;8.40;99.90;;;;;;5080493;28;20043;-74
2022/03/29 09:16:00;;;;;;;41.75;20.75;;;8.40;99.90;;;;;;5098400;28;20035;-74
2022/03/29 09:18:27;;;;;;;43.90;21.08;;;8.40;99.90;;;;;;5098327;28;20395;-74
2022/03/29 09:21:17;;;;;;;29.85;18.85;;;8.50;99.90;;;;;;5097164;28;20100;-74
2022/03/29 09:24:02;;;;;;;35.08;18.75;;;8.50;99.90;;;;;;5097801;28;20043;-74
2022/03/29 09:26:33;;;;;;;39.13;19.50;;;8.50;99.90;;;;;;5081297;28;20100;-74
2022/03/29 09:28:59;;;;;;;38.80;20.30;;;8.50;99.90;;;;;;5098274;28;20047;-74
2022/03/29 09:31:29;;;;;;;43.97;19.92;;;8.40;99.90;;;;;;5116165;28;20040;-73
2022/03/29 09:34:20;;;;;;;38.08;19.75;;;8.50;99.90;;;;;;5096769;28;20399;-73
2022/03/29 09:36:51;;;;;;;39.58;18.75;;;8.50;99.90;;;;;;5086298;28;20056;-74
2022/03/29 09:39:29;;;;;;;38.45;20.23;;;8.50;99.90;;;;;;5097687;28;20052;-74
2022/03/29 09:42:00;;;;;;;36.45;19.25;;;8.60;99.90;;;;;;5096672;28;20043;-73
2022/03/29 09:44:47;;;;;;;34.70;20.75;;;8.70;99.90;;;;;;5115718;28;20506;-74
2022/03/29 09:47:15;;;;;;;35.38;19.67;;;8.80;99.90;;;;;;5096804;28;20083;-74
2022/03/29 09:49:57;;;;;;;41.38;20.52;;;8.90;99.90;;;;;;5114731;28;20056;-74
2022/03/29 09:52:31;;;;;;;34.97;19.25;;;9.20;99.90;;;;;;5097419;28;20048;-74
2022/03/29 09:55:13;;;;;;;;;;;9.40;99.90;;;;;;5115464;28;20066;-74
2022/03/29 09:57:49;;;;;;;27.63;17.38;;;9.50;99.90;;;;;;5097562;28;19923;-74
2022/03/29 10:00:16;;;;;;;37.08;18.02;;;9.50;99.90;;;;;;5115597;28;20131;-74
2022/03/29 10:02:47;;;;;;;33.75;18.58;;;9.50;99.90;;;;;;5096032;28;20578;-74
2022/03/29 10:05:16;;;;;;;38.58;19.80;;;9.50;99.90;;;;;;5097129;28;20044;-73
2022/03/29 10:09:25;;;;;;;44.92;20.77;;;9.60;99.90;;;;;;5096917;28;20483;-74
2022/03/29 10:10:39;;;;;;;36.25;18.27;;;9.60;99.90;;;;;;5114418;28;20044;-73
2022/03/29 10:13:05;;;;;;;41.35;18.10;;;9.70;99.90;;;;;;5097111;28;20048;-73
2022/03/29 10:15:31;;;;;;;34.53;18.60;;;9.70;99.90;;;;;;5097004;28;20490;-73
2022/03/29 10:17:58;;;;;;;33.83;18.05;;;9.70;99.90;;;;;;5096048;28;20093;-73
2022/03/29 10:20:24;;;;;;;32.88;17.73;;;9.80;99.90;;;;;;5096886;28;20130;-73
2022/03/29 10:22:50;;;;;;;34.63;18.10;;;9.90;99.90;;;;;;5096142;28;20415;-74
2022/03/29 10:25:17;;;;;;;31.45;18.77;;;9.90;99.90;;;;;;5079847;28;20047;-73
2022/03/29 10:27:43;;;;;;;34.42;17.92;;;10.00;99.90;;;;;;5080006;28;20086;-73
2022/03/29 10:30:09;;;;;;;42.35;17.92;;;10.00;99.90;;;;;;5114219;28;20083;-74
2022/03/29 10:32:35;;;;;;;32.20;16.58;;;10.20;99.90;;;;;;5115001;28;20118;-74
2022/03/29 10:35:09;;;;;;;34.38;17.17;;;10.30;99.90;;;;;;5079507;28;20575;-73
2022/03/29 10:37:55;;;;;;;25.05;14.38;;;10.30;99.90;;;;;;5114107;28;20047;-73
2022/03/29 10:40:39;;;;;;;29.83;11.70;;;10.30;99.90;;;;;;5096508;28;20051;-73
2022/03/29 10:43:29;;;;;;;24.63;11.93;;;10.30;99.90;;;;;;5096456;28;20047;-73
2022/03/29 10:45:57;;;;;;;35.88;12.98;;;10.30;99.90;;;;;;5113681;28;20119;-73
2022/03/29 10:48:23;;;;;;;29.45;13.10;;;10.20;99.90;;;;;;5079820;28;20039;-73
2022/03/29 10:50:58;;;;;;;31.33;13.45;;;10.20;99.90;;;;;;5114380;28;20043;-74
2022/03/29 10:53:34;;;;;;;21.60;11.75;;;10.20;99.90;;;;;;5096485;28;20119;-73
2022/03/29 10:56:16;;;;;;;25.98;10.48;;;10.20;99.90;;;;;;5079668;28;20448;-73
2022/03/29 10:59:04;;;;;;;30.35;12.10;;;10.30;99.90;;;;;;5113249;28;20059;-73
2022/03/29 11:01:34;;;;;;;31.75;12.05;;;10.40;99.90;;;;;;5114507;28;20043;-73
2022/03/29 11:04:00;;;;;;;32.17;11.43;;;10.50;99.90;;;;;;5096233;28;20075;-74
2022/03/29 11:06:26;;;;;;;29.50;10.80;;;10.70;99.90;;;;;;5113417;28;20047;-74
2022/03/29 11:09:02;;;;;;;28.08;11.48;;;10.90;99.90;;;;;;5114347;28;20035;-73
2022/03/29 11:11:40;;;;;;;29.27;12.18;;;10.90;99.90;;;;;;5095907;28;20048;-74
2022/03/29 11:14:32;;;;;;;31.42;10.45;;;10.80;99.90;;;;;;5094916;28;20048;-73
2022/03/29 11:17:09;;;;;;;24.23;10.43;;;10.80;99.90;;;;;;5095850;28;20062;-73
2022/03/29 11:19:46;;;;;;;26.33;10.32;;;10.70;99.90;;;;;;5093891;28;20090;-74
2022/03/29 11:22:31;;;;;;;29.00;10.95;;;10.70;99.90;;;;;;5078882;28;20040;-73
2022/03/29 11:25:05;;;;;;;41.67;13.57;;;10.60;99.90;;;;;;5113625;28;20120;-74
2022/03/29 11:27:33;;;;;;;27.80;10.07;;;10.60;99.90;;;;;;5095031;28;20422;-73
2022/03/29 11:30:01;;;;;;;29.15;10.10;;;10.70;99.90;;;;;;5095680;28;20044;-74
2022/03/29 11:32:28;;;;;;;23.88;9.15;;;10.80;99.90;;;;;;5113651;28;20043;-73
2022/03/29 11:34:58;;;;;;;25.65;10.05;;;10.90;99.90;;;;;;5112710;28;20513;-73
2022/03/29 11:37:40;;;;;;;26.75;10.10;;;10.80;99.90;;;;;;5095454;28;20164;-73
2022/03/29 11:40:12;;;;;;;25.20;10.00;;;10.70;99.90;;;;;;5113946;28;20406;-74
2022/03/29 11:42:52;;;;;;;25.58;10.27;;;10.60;99.90;;;;;;5095352;28;20051;-73
2022/03/29 11:45:23;;;;;;;26.05;9.75;;;10.50;99.90;;;;;;5112230;28;20032;-74
2022/03/29 11:48:04;;;;;;;29.08;9.73;;;10.60;99.90;;;;;;5074898;28;20040;-72
2022/03/29 11:50:39;;;;;;;20.35;8.70;;;10.60;99.90;;;;;;5108614;28;20138;-73
2022/03/29 11:53:27;;;;;;;22.25;9.90;;;10.60;99.90;;;;;;5112502;28;20390;-73
2022/03/29 11:55:57;;;;;;;31.73;10.40;;;10.50;99.90;;;;;;5104476;28;20122;-74
2022/03/29 11:58:32;;;;;;;28.45;9.55;;;10.50;99.90;;;;;;5112080;28;20036;-73
2022/03/29 12:01:03;;;;;;;26.65;11.05;;;10.50;99.90;;;;;;5095204;28;20059;-73
2022/03/29 12:03:33;;;;;;;37.22;10.80;;;10.70;99.90;;;;;;5094550;28;20100;-73
2022/03/29 12:06:10;;;;;;;26.63;9.15;;;10.70;99.90;;;;;;5113532;28;20048;-73
2022/03/29 12:08:42;;;;;;;21.42;7.65;;;10.90;99.90;;;;;;5112749;28;20047;-73
2022/03/29 12:11:12;;;;;;;19.00;8.05;;;10.80;99.90;;;;;;5096226;28;20131;-73
2022/03/29 12:13:39;;;;;;;32.40;10.38;;;10.70;99.90;;;;;;5099368;28;20051;-73
2022/03/29 12:16:17;;;;;;;37.00;12.70;;;10.60;99.90;;;;;;5098375;28;20075;-73
2022/03/29 12:18:43;;;;;;;28.50;9.20;;;10.80;99.90;;;;;;5117557;28;20368;-73
2022/03/29 12:21:11;;;;;;;19.95;8.13;;;10.90;99.90;;;;;;5116916;28;20046;-72
2022/03/29 12:23:36;;;;;;;23.95;7.78;;;11.10;99.90;;;;;;5108975;28;20039;-73
2022/03/29 12:26:04;;;;;;;24.00;9.55;;;11.10;99.90;;;;;;5117175;28;20559;-73
2022/03/29 12:28:31;;;;;;;25.02;9.30;;;11.00;99.90;;;;;;5116874;28;20039;-73
2022/03/29 12:30:57;;;;;;;24.38;8.57;;;11.00;99.90;;;;;;5112748;28;20039;-73
2022/03/29 12:33:26;;;;;;;20.08;8.30;;;11.00;99.90;;;;;;5115863;28;20050;-72
2022/03/29 12:36:05;;;;;;;21.92;8.52;;;10.90;99.90;;;;;;5095590;28;20047;-73
2022/03/29 12:38:45;;;;;;;28.75;9.98;;;10.70;99.90;;;;;;5080540;28;20134;-73
2022/03/29 12:41:12;;;;;;;24.08;8.40;;;10.70;99.90;;;;;;5116847;28;20047;-72
2022/03/29 12:43:51;;;;;;;31.60;8.32;;;10.70;99.90;;;;;;5097239;28;20415;-73
2022/03/29 12:46:16;;;;;;;21.85;9.32;;;10.70;99.90;;;;;;5116787;28;20036;-72
2022/03/29 12:48:51;;;;;;;25.73;9.13;;;10.70;99.90;;;;;;5098210;28;20039;-73
2022/03/29 12:51:24;;;;;;;31.88;11.23;;;10.60;99.90;;;;;;5097627;28;20055;-72
2022/03/29 12:54:07;;;;;;;26.48;9.32;;;10.60;99.90;;;;;;5098242;28;20433;-72